createdAt,value
2018-01-27T00:00:01.006Z,101908.36
2018-01-27T00:02:29.086Z,101910.65
2018-01-27T00:04:57.425Z,101918.97
2018-01-27T00:07:25.809Z,101921.14
2018-01-27T00:09:54.169Z,101928.23
2018-01-27T00:12:22.518Z,101922.98
2018-01-27T00:14:50.841Z,101932.66
2018-01-27T00:17:19.201Z,101937.60
2018-01-27T00:19:47.521Z,101933.12
2018-01-27T00:22:15.965Z,101940.73
2018-01-27T00:24:44.309Z,101939.75
2018-01-27T00:27:12.637Z,101946.01
2018-01-27T00:29:40.995Z,101938.92
2018-01-27T00:32:09.317Z,101938.07
2018-01-27T00:34:37.748Z,101944.12
2018-01-27T00:37:06.078Z,101941.53
2018-01-27T00:39:34.501Z,101940.19
2018-01-27T00:42:02.830Z,101947.72
2018-01-27T00:44:31.269Z,101950.72
2018-01-27T00:46:59.598Z,101949.08
2018-01-27T00:49:28.021Z,101953.43
2018-01-27T00:51:56.345Z,101953.90
2018-01-27T00:54:24.764Z,101953.02
2018-01-27T00:56:53.094Z,101956.48
2018-01-27T00:59:21.450Z,101962.17
2018-01-27T01:01:49.773Z,101965.28
2018-01-27T01:04:18.117Z,101958.24
2018-01-27T01:06:46.443Z,101963.52
2018-01-27T01:09:14.785Z,101964.34
2018-01-27T01:11:43.114Z,101963.83
2018-01-27T01:14:11.453Z,101969.08
2018-01-27T01:16:39.778Z,101968.20
2018-01-27T01:19:08.125Z,101969.84
2018-01-27T01:21:36.445Z,101974.71
2018-01-27T01:24:04.789Z,101969.41
2018-01-27T01:26:33.109Z,101969.11
2018-01-27T01:29:01.456Z,101974.80
2018-01-27T01:31:29.777Z,101972.16
2018-01-27T01:33:58.120Z,101967.62
2018-01-27T01:36:26.445Z,101968.91
2018-01-27T01:38:54.796Z,101965.74
2018-01-27T01:41:23.121Z,101964.80
2018-01-27T01:43:57.126Z,101953.80
2018-01-27T01:46:25.449Z,101961.66
2018-01-27T01:48:53.793Z,101956.38
2018-01-27T01:51:22.117Z,101963.95
2018-01-27T01:53:50.465Z,101961.31
2018-01-27T01:56:18.789Z,101963.45
2018-01-27T01:58:47.135Z,101966.56
2018-01-27T02:01:15.457Z,101963.41
2018-01-27T02:03:43.805Z,101962.06
2018-01-27T02:06:12.133Z,101963.89
2018-01-27T02:08:40.473Z,101966.91
2018-01-27T02:11:08.794Z,101972.84
2018-01-27T02:13:37.138Z,101969.20
2018-01-27T02:16:05.461Z,101971.02
2018-01-27T02:18:33.809Z,101965.17
2018-01-27T02:21:02.133Z,101966.56
2018-01-27T02:23:30.476Z,101972.16
2018-01-27T02:25:58.801Z,101979.58
2018-01-27T02:28:27.126Z,101980.05
2018-01-27T02:30:55.471Z,101977.05
2018-01-27T02:33:23.794Z,101980.98
2018-01-27T02:35:52.137Z,101978.64
2018-01-27T02:38:20.460Z,101975.07
2018-01-27T02:40:48.805Z,101979.47
2018-01-27T02:43:17.984Z,101977.88
2018-01-27T02:45:46.313Z,101976.42
2018-01-27T02:48:14.641Z,101978.65
2018-01-27T02:50:42.986Z,101982.77
2018-01-27T02:53:11.310Z,101982.79
2018-01-27T02:55:39.654Z,101974.56
2018-01-27T02:58:07.982Z,101982.09
2018-01-27T03:00:36.321Z,101982.59
2018-01-27T03:03:04.645Z,101980.78
2018-01-27T03:05:32.992Z,101984.33
2018-01-27T03:08:01.325Z,101990.87
2018-01-27T03:10:29.669Z,101996.05
2018-01-27T03:12:57.998Z,101993.86
2018-01-27T03:15:26.340Z,101997.27
2018-01-27T03:17:54.665Z,101997.25
2018-01-27T03:20:23.009Z,101996.95
2018-01-27T03:22:51.333Z,101997.70
2018-01-27T03:25:19.678Z,101990.68
2018-01-27T03:27:48.002Z,102004.83
2018-01-27T03:30:16.350Z,102002.65
2018-01-27T03:32:44.677Z,102003.42
2018-01-27T03:35:13.021Z,102006.48
2018-01-27T03:37:41.346Z,102008.78
2018-01-27T03:40:09.689Z,102012.25
2018-01-27T03:42:38.014Z,102008.27
2018-01-27T03:45:06.358Z,102008.32
2018-01-27T03:47:34.681Z,102011.86
2018-01-27T03:50:03.026Z,102016.23
2018-01-27T03:52:31.349Z,102018.45
2018-01-27T03:54:59.693Z,102023.24
2018-01-27T03:57:28.022Z,102023.75
2018-01-27T03:59:56.365Z,102026.81
2018-01-27T04:02:24.689Z,102027.22
2018-01-27T04:04:53.034Z,102035.09
2018-01-27T04:07:21.357Z,102032.46
2018-01-27T04:09:49.701Z,102029.86
2018-01-27T04:12:18.025Z,102028.57
2018-01-27T04:14:46.368Z,102024.72
2018-01-27T04:17:14.701Z,102026.44
2018-01-27T04:19:43.042Z,102027.81
2018-01-27T04:22:11.365Z,102030.06
2018-01-27T04:24:39.712Z,102037.96
2018-01-27T04:27:08.029Z,102045.87
2018-01-27T04:29:36.354Z,102052.92
2018-01-27T04:32:04.705Z,102058.20
2018-01-27T04:34:33.025Z,102060.86
2018-01-27T04:37:01.373Z,102055.16
2018-01-27T04:39:29.693Z,102064.41
2018-01-27T04:41:58.037Z,102065.30
2018-01-27T04:44:26.373Z,102064.89
2018-01-27T04:46:54.725Z,102068.39
2018-01-27T04:49:23.046Z,102070.16
2018-01-27T04:51:51.395Z,102071.06
2018-01-27T04:54:19.717Z,102072.81
2018-01-27T04:56:48.067Z,102073.25
2018-01-27T04:59:16.384Z,102083.80
2018-01-27T05:01:44.729Z,102081.61
2018-01-27T05:04:13.061Z,102087.33
2018-01-27T05:06:41.406Z,102094.80
2018-01-27T05:09:09.729Z,102100.50
2018-01-27T05:11:38.078Z,102094.34
2018-01-27T05:14:06.398Z,102102.67
2018-01-27T05:16:34.745Z,102109.70
2018-01-27T05:19:03.065Z,102104.44
2018-01-27T05:21:31.408Z,102107.98
2018-01-27T05:23:59.733Z,102115.44
2018-01-27T05:26:28.077Z,102110.59
2018-01-27T05:28:56.401Z,102128.20
2018-01-27T05:31:24.749Z,102123.34
2018-01-27T05:33:53.073Z,102130.41
2018-01-27T05:36:21.421Z,102145.28
2018-01-27T05:38:49.746Z,102149.74
2018-01-27T05:41:18.096Z,102145.34
2018-01-27T05:43:46.421Z,102154.11
2018-01-27T05:46:14.765Z,102155.86
2018-01-27T05:48:43.093Z,102147.08
2018-01-27T05:51:11.433Z,102152.75
2018-01-27T05:53:39.770Z,102152.77
2018-01-27T05:56:08.105Z,102160.66
2018-01-27T05:58:36.430Z,102162.85
2018-01-27T06:01:04.773Z,102164.62
2018-01-27T06:03:33.103Z,102164.63
2018-01-27T06:06:01.449Z,102161.56
2018-01-27T06:08:29.773Z,102159.81
2018-01-27T06:10:58.116Z,102162.42
2018-01-27T06:13:26.437Z,102163.33
2018-01-27T06:15:54.785Z,102163.80
2018-01-27T06:18:23.109Z,102168.66
2018-01-27T06:20:51.458Z,102176.56
2018-01-27T06:23:19.782Z,102174.78
2018-01-27T06:25:48.129Z,102174.38
2018-01-27T06:28:16.449Z,102178.33
2018-01-27T06:30:44.769Z,102185.80
2018-01-27T06:33:13.114Z,102188.41
2018-01-27T06:35:41.437Z,102190.20
2018-01-27T06:38:09.782Z,102191.06
2018-01-27T06:40:38.106Z,102192.38
2018-01-27T06:43:06.457Z,102195.88
2018-01-27T06:45:34.921Z,102196.75
2018-01-27T06:48:03.250Z,102199.41
2018-01-27T06:50:31.572Z,102195.88
2018-01-27T06:52:59.918Z,102202.92
2018-01-27T06:55:28.242Z,102212.57
2018-01-27T06:57:56.589Z,102217.82
2018-01-27T07:00:24.909Z,102216.52
2018-01-27T07:02:53.254Z,102216.95
2018-01-27T07:05:21.578Z,102215.64
2018-01-27T07:07:49.926Z,102215.63
2018-01-27T07:10:18.250Z,102217.41
2018-01-27T07:12:46.597Z,102217.39
2018-01-27T07:15:14.917Z,102209.94
2018-01-27T07:17:43.261Z,102217.41
2018-01-27T07:20:11.581Z,102212.14
2018-01-27T07:22:39.922Z,102212.12
2018-01-27T07:25:08.246Z,102218.73
2018-01-27T07:27:36.595Z,102223.11
2018-01-27T07:30:04.923Z,102229.69
2018-01-27T07:32:33.261Z,102231.00
2018-01-27T07:35:01.592Z,102235.38
2018-01-27T07:37:29.937Z,102238.02
2018-01-27T07:39:58.259Z,102242.84
2018-01-27T07:42:26.601Z,102247.68
2018-01-27T07:44:55.089Z,102244.61
2018-01-27T07:47:23.433Z,102251.64
2018-01-27T07:49:51.757Z,102247.25
2018-01-27T07:52:20.100Z,102251.65
2018-01-27T07:54:48.423Z,102247.70
2018-01-27T07:57:16.766Z,102254.28
2018-01-27T07:59:45.090Z,102258.67
2018-01-27T08:02:13.434Z,102252.97
2018-01-27T08:04:41.761Z,102252.09
2018-01-27T08:07:10.104Z,102267.91
2018-01-27T08:09:38.421Z,102260.87
2018-01-27T08:12:06.766Z,102260.87
2018-01-27T08:14:35.097Z,102259.55
2018-01-27T08:17:03.437Z,102270.54
2018-01-27T08:19:31.765Z,102268.34
2018-01-27T08:22:00.113Z,102275.36
2018-01-27T08:24:28.437Z,102279.77
2018-01-27T08:26:56.793Z,102273.60
2018-01-27T08:29:25.575Z,102275.78
2018-01-27T08:32:00.677Z,102274.92
2018-01-27T08:34:35.162Z,102274.45
2018-01-27T08:37:03.549Z,102277.11
2018-01-27T08:39:31.860Z,102278.42
2018-01-27T08:42:00.195Z,102283.27
2018-01-27T08:44:28.545Z,102283.71
2018-01-27T08:46:56.869Z,102282.81
2018-01-27T08:49:25.227Z,102283.69
2018-01-27T08:51:53.557Z,102285.86
2018-01-27T08:54:21.966Z,102293.79
2018-01-27T08:56:50.305Z,102292.47
2018-01-27T08:59:18.653Z,102301.25
2018-01-27T09:01:47.015Z,102300.81
2018-01-27T09:04:15.349Z,102301.70
2018-01-27T09:06:43.682Z,102298.62
2018-01-27T09:09:12.060Z,102304.77
2018-01-27T09:11:40.409Z,102314.89
2018-01-27T09:14:08.770Z,102309.16
2018-01-27T09:16:37.105Z,102313.11
2018-01-27T09:19:05.462Z,102313.98
2018-01-27T09:21:33.794Z,102318.84
2018-01-27T09:24:02.146Z,102314.41
2018-01-27T09:26:30.479Z,102320.55
2018-01-27T09:28:58.986Z,102324.53
2018-01-27T09:31:28.145Z,102321.01
2018-01-27T09:33:56.610Z,102318.37
2018-01-27T09:36:24.937Z,102316.16
2018-01-27T09:38:53.301Z,102317.48
2018-01-27T09:41:21.637Z,102324.94
2018-01-27T09:43:49.989Z,102322.27
2018-01-27T09:46:18.317Z,102326.67
2018-01-27T09:48:46.669Z,102323.59
2018-01-27T09:51:15.917Z,102325.27
2018-01-27T09:53:44.370Z,102331.84
2018-01-27T09:56:12.685Z,102326.14
2018-01-27T09:58:41.035Z,102326.10
2018-01-27T10:01:09.366Z,102327.02
2018-01-27T10:03:37.718Z,102323.02
2018-01-27T10:06:06.053Z,102322.59
2018-01-27T10:08:34.402Z,102317.75
2018-01-27T10:11:03.809Z,102310.70
2018-01-27T10:13:32.229Z,102315.08
2018-01-27T10:16:01.514Z,102315.11
2018-01-27T10:18:29.868Z,102315.53
2018-01-27T10:20:58.206Z,102301.46
2018-01-27T10:23:26.545Z,102301.92
2018-01-27T10:25:54.890Z,102299.70
2018-01-27T10:28:23.330Z,102302.30
2018-01-27T10:30:52.175Z,102294.36
2018-01-27T10:33:20.522Z,102284.16
2018-01-27T10:35:48.890Z,102279.38
2018-01-27T10:38:17.226Z,102282.84
2018-01-27T10:40:45.553Z,102277.52
2018-01-27T10:43:13.902Z,102270.41
2018-01-27T10:45:43.206Z,102270.81
2018-01-27T10:48:11.563Z,102277.52
2018-01-27T10:50:39.935Z,102274.40
2018-01-27T10:53:08.265Z,102280.13
2018-01-27T10:55:36.658Z,102283.27
2018-01-27T10:58:04.990Z,102289.89
2018-01-27T11:00:33.348Z,102300.87
2018-01-27T11:03:01.678Z,102297.38
2018-01-27T11:05:30.042Z,102293.83
2018-01-27T11:07:58.371Z,102300.41
2018-01-27T11:10:26.720Z,102299.14
2018-01-27T11:12:55.079Z,102300.81
2018-01-27T11:15:23.426Z,102302.56
2018-01-27T11:17:52.164Z,102296.48
2018-01-27T11:20:20.489Z,102302.17
2018-01-27T11:22:48.814Z,102307.49
2018-01-27T11:25:17.165Z,102301.42
2018-01-27T11:27:45.515Z,102300.98
2018-01-27T11:30:14.518Z,102294.30
2018-01-27T11:32:42.841Z,102301.84
2018-01-27T11:35:11.189Z,102294.41
2018-01-27T11:37:39.521Z,102301.30
2018-01-27T11:40:07.877Z,102299.00
2018-01-27T11:42:36.235Z,102287.19
2018-01-27T11:45:04.621Z,102278.19
2018-01-27T11:47:32.958Z,102276.30
2018-01-27T11:50:01.321Z,102266.91
2018-01-27T11:52:29.650Z,102269.69
2018-01-27T11:54:58.049Z,102275.87
2018-01-27T11:57:26.589Z,102278.92
2018-01-27T11:59:54.950Z,102278.91
2018-01-27T12:02:23.282Z,102279.86
2018-01-27T12:04:51.650Z,102281.57
2018-01-27T12:07:19.982Z,102272.83
2018-01-27T12:09:48.339Z,102270.22
2018-01-27T12:12:16.674Z,102266.67
2018-01-27T12:14:45.034Z,102257.88
2018-01-27T12:17:14.121Z,102259.12
2018-01-27T12:19:42.478Z,102257.34
2018-01-27T12:22:10.810Z,102253.91
2018-01-27T12:24:39.165Z,102254.33
2018-01-27T12:27:07.497Z,102262.73
2018-01-27T12:29:35.917Z,102255.66
2018-01-27T12:32:04.401Z,102255.59
2018-01-27T12:34:34.718Z,102257.77
2018-01-27T12:37:03.092Z,102257.86
2018-01-27T12:39:31.446Z,102254.36
2018-01-27T12:41:59.855Z,102254.38
2018-01-27T12:44:28.427Z,102259.17
2018-01-27T12:46:56.777Z,102250.81
2018-01-27T12:49:25.122Z,102249.54
2018-01-27T12:51:53.456Z,102251.30
2018-01-27T12:54:21.781Z,102244.33
2018-01-27T12:56:50.970Z,102245.83
2018-01-27T12:59:19.278Z,102231.95
2018-01-27T13:01:47.626Z,102231.20
2018-01-27T13:04:15.949Z,102223.45
2018-01-27T13:06:44.301Z,102222.26
2018-01-27T13:09:12.634Z,102222.26
2018-01-27T13:11:41.297Z,102215.33
2018-01-27T13:14:09.622Z,102215.33
2018-01-27T13:16:37.973Z,102215.92
2018-01-27T13:19:06.306Z,102219.39
2018-01-27T13:21:34.649Z,102219.86
2018-01-27T13:24:02.974Z,102217.79
2018-01-27T13:26:31.327Z,102220.38
2018-01-27T13:28:59.657Z,102216.00
2018-01-27T13:31:28.017Z,102222.20
2018-01-27T13:33:56.342Z,102227.41
2018-01-27T13:36:24.873Z,102224.75
2018-01-27T13:38:53.203Z,102220.44
2018-01-27T13:41:21.553Z,102215.15
2018-01-27T13:43:49.881Z,102205.45
2018-01-27T13:46:18.226Z,102208.18
2018-01-27T13:48:46.553Z,102202.48
2018-01-27T13:51:14.901Z,102201.67
2018-01-27T13:53:43.225Z,102204.23
2018-01-27T13:56:12.705Z,102204.27
2018-01-27T13:58:41.013Z,102205.12
2018-01-27T14:01:09.366Z,102205.16
2018-01-27T14:03:37.697Z,102205.12
2018-01-27T14:06:06.041Z,102210.73
2018-01-27T14:08:34.370Z,102206.84
2018-01-27T14:11:02.721Z,102199.89
2018-01-27T14:13:31.045Z,102205.20
2018-01-27T14:16:00.309Z,102214.47
2018-01-27T14:18:28.638Z,102220.56
2018-01-27T14:20:56.997Z,102213.50
2018-01-27T14:23:25.340Z,102214.91
2018-01-27T14:25:53.690Z,102212.71
2018-01-27T14:28:22.014Z,102211.75
2018-01-27T14:30:50.366Z,102220.17
2018-01-27T14:33:18.693Z,102214.50
2018-01-27T14:35:47.050Z,102213.56
2018-01-27T14:38:15.373Z,102223.26
2018-01-27T14:40:43.720Z,102232.99
2018-01-27T14:43:12.048Z,102226.45
2018-01-27T14:45:41.301Z,102226.41
2018-01-27T14:48:09.626Z,102226.08
2018-01-27T14:50:37.978Z,102222.05
2018-01-27T14:53:06.310Z,102225.53
2018-01-27T14:55:35.097Z,102226.09
2018-01-27T14:58:03.426Z,102216.02
2018-01-27T15:00:31.748Z,102220.88
2018-01-27T15:03:00.097Z,102215.59
2018-01-27T15:05:28.437Z,102212.97
2018-01-27T15:07:56.787Z,102207.19
2018-01-27T15:10:25.105Z,102202.35
2018-01-27T15:12:53.459Z,102204.97
2018-01-27T15:15:22.655Z,102195.82
2018-01-27T15:17:51.005Z,102185.69
2018-01-27T15:20:19.334Z,102177.78
2018-01-27T15:22:47.694Z,102165.55
2018-01-27T15:25:16.017Z,102148.72
2018-01-27T15:27:44.366Z,102152.37
2018-01-27T15:30:12.696Z,102140.50
2018-01-27T15:32:41.046Z,102140.58
2018-01-27T15:35:10.236Z,102141.91
2018-01-27T15:37:38.597Z,102146.80
2018-01-27T15:40:06.921Z,102150.36
2018-01-27T15:42:35.274Z,102150.72
2018-01-27T15:45:03.613Z,102144.19
2018-01-27T15:47:31.957Z,102140.67
2018-01-27T15:50:00.304Z,102157.80
2018-01-27T15:52:28.680Z,102149.52
2018-01-27T15:54:57.861Z,102147.76
2018-01-27T15:57:26.317Z,102146.88
2018-01-27T15:59:54.638Z,102143.37
2018-01-27T16:02:22.989Z,102141.59
2018-01-27T16:04:51.313Z,102145.59
2018-01-27T16:07:19.695Z,102148.27
2018-01-27T16:09:48.036Z,102139.89
2018-01-27T16:12:16.378Z,102142.49
2018-01-27T16:14:44.730Z,102133.30
2018-01-27T16:17:13.119Z,102137.69
2018-01-27T16:19:41.409Z,102134.69
2018-01-27T16:22:09.758Z,102129.37
2018-01-27T16:24:38.086Z,102124.12
2018-01-27T16:27:06.439Z,102130.30
2018-01-27T16:29:34.765Z,102122.38
2018-01-27T16:32:03.131Z,102126.72
2018-01-27T16:34:32.323Z,102116.22
2018-01-27T16:37:00.653Z,102111.37
2018-01-27T16:39:28.985Z,102121.46
2018-01-27T16:41:57.334Z,102120.12
2018-01-27T16:44:25.661Z,102117.31
2018-01-27T16:46:54.018Z,102112.91
2018-01-27T16:49:22.342Z,102114.28
2018-01-27T16:51:50.705Z,102121.84
2018-01-27T16:54:19.031Z,102117.05
2018-01-27T16:56:47.377Z,102115.78
2018-01-27T16:59:15.705Z,102125.01
2018-01-27T17:01:44.070Z,102125.04
2018-01-27T17:04:12.393Z,102129.91
2018-01-27T17:06:40.725Z,102102.59
2018-01-27T17:09:09.074Z,102083.28
2018-01-27T17:11:37.410Z,102074.13
2018-01-27T17:14:05.762Z,102068.81
2018-01-27T17:16:34.094Z,102060.03
2018-01-27T17:19:02.453Z,102056.98
2018-01-27T17:21:30.779Z,102056.52
2018-01-27T17:23:59.125Z,102044.67
2018-01-27T17:26:27.453Z,102034.17
2018-01-27T17:28:55.806Z,102032.81
2018-01-27T17:31:24.137Z,102030.56
2018-01-27T17:33:52.485Z,102026.57
2018-01-27T17:36:20.814Z,102023.52
2018-01-27T17:38:49.163Z,102031.01
2018-01-27T17:41:17.490Z,102027.05
2018-01-27T17:43:45.841Z,102029.23
2018-01-27T17:46:14.174Z,102024.43
2018-01-27T17:48:42.533Z,102024.88
2018-01-27T17:51:10.862Z,102022.63
2018-01-27T17:53:39.206Z,102020.11
2018-01-27T17:56:07.538Z,102015.27
2018-01-27T17:58:35.893Z,102003.83
2018-01-27T18:01:04.734Z,101994.57
2018-01-27T18:03:33.084Z,101980.53
2018-01-27T18:06:01.415Z,101975.27
2018-01-27T18:08:29.765Z,101969.54
2018-01-27T18:10:58.095Z,101950.16
2018-01-27T18:13:26.442Z,101948.80
2018-01-27T18:15:54.765Z,101957.64
2018-01-27T18:18:23.116Z,101973.02
2018-01-27T18:20:51.442Z,101962.93
2018-01-27T18:23:19.793Z,101960.25
2018-01-27T18:25:49.097Z,101954.08
2018-01-27T18:28:17.445Z,101969.92
2018-01-27T18:30:45.769Z,101984.41
2018-01-27T18:33:14.109Z,101988.39
2018-01-27T18:35:42.438Z,101985.66
2018-01-27T18:38:10.781Z,101991.83
2018-01-27T18:40:39.113Z,101988.75
2018-01-27T18:43:07.461Z,101983.88
2018-01-27T18:45:35.789Z,101976.85
2018-01-27T18:48:04.142Z,101979.92
2018-01-27T18:50:32.466Z,101979.92
2018-01-27T18:53:00.813Z,101972.86
2018-01-27T18:55:29.141Z,101970.23
2018-01-27T18:57:57.491Z,101958.80
2018-01-27T19:00:25.812Z,101956.53
2018-01-27T19:02:54.153Z,101950.35
2018-01-27T19:05:22.477Z,101937.98
2018-01-27T19:07:50.852Z,101918.64
2018-01-27T19:10:19.201Z,101918.17
2018-01-27T19:12:47.520Z,101920.84
2018-01-27T19:15:16.018Z,101910.79
2018-01-27T19:17:44.472Z,101897.13
2018-01-27T19:20:12.826Z,101877.73
2018-01-27T19:22:41.145Z,101886.93
2018-01-27T19:25:09.490Z,101901.85
2018-01-27T19:27:37.813Z,101897.48
2018-01-27T19:30:06.161Z,101889.92
2018-01-27T19:32:34.482Z,101885.08
2018-01-27T19:35:02.830Z,101871.75
2018-01-27T19:37:32.108Z,101859.06
2018-01-27T19:40:00.450Z,101869.66
2018-01-27T19:42:28.769Z,101860.89
2018-01-27T19:44:57.113Z,101874.02
2018-01-27T19:47:25.434Z,101873.17
2018-01-27T19:49:53.773Z,101867.36
2018-01-27T19:52:22.093Z,101863.09
2018-01-27T19:54:50.438Z,101867.80
2018-01-27T19:57:18.917Z,101861.70
2018-01-27T19:59:47.262Z,101844.11
2018-01-27T20:02:15.590Z,101832.23
2018-01-27T20:04:43.933Z,101827.39
2018-01-27T20:07:12.257Z,101815.08
2018-01-27T20:09:40.610Z,101819.92
2018-01-27T20:12:08.934Z,101820.36
2018-01-27T20:14:37.274Z,101829.63
2018-01-27T20:17:06.489Z,101837.89
2018-01-27T20:19:34.825Z,101823.00
2018-01-27T20:22:03.148Z,101823.00
2018-01-27T20:24:31.491Z,101825.20
2018-01-27T20:26:59.812Z,101820.73
2018-01-27T20:29:28.157Z,101830.84
2018-01-27T20:31:56.473Z,101827.77
2018-01-27T20:34:24.813Z,101825.97
2018-01-27T20:36:54.077Z,101821.53
2018-01-27T20:39:22.421Z,101826.01
2018-01-27T20:41:50.751Z,101812.81
2018-01-27T20:44:19.089Z,101803.06
2018-01-27T20:46:47.410Z,101800.75
2018-01-27T20:49:15.753Z,101800.39
2018-01-27T20:51:44.085Z,101792.34
2018-01-27T20:54:12.426Z,101791.98
2018-01-27T20:56:40.745Z,101784.55
2018-01-27T20:59:09.090Z,101795.47
2018-01-27T21:01:37.414Z,101800.42
2018-01-27T21:04:05.749Z,101796.02
2018-01-27T21:06:34.074Z,101778.34
2018-01-27T21:09:02.398Z,101773.98
2018-01-27T21:11:30.745Z,101774.34
2018-01-27T21:13:59.069Z,101778.83
2018-01-27T21:16:27.405Z,101770.50
2018-01-27T21:18:55.726Z,101763.39
2018-01-27T21:21:24.070Z,101759.34
2018-01-27T21:23:52.393Z,101762.03
2018-01-27T21:26:20.738Z,101769.06
2018-01-27T21:28:49.062Z,101775.63
2018-01-27T21:31:17.405Z,101780.27
2018-01-27T21:33:45.725Z,101775.51
2018-01-27T21:36:14.062Z,101760.50
2018-01-27T21:38:42.382Z,101769.61
2018-01-27T21:41:10.725Z,101742.89
2018-01-27T21:43:39.046Z,101754.65
2018-01-27T21:46:07.382Z,101754.56
2018-01-27T21:48:35.701Z,101744.48
2018-01-27T21:51:04.038Z,101748.79
2018-01-27T21:53:32.359Z,101741.22
2018-01-27T21:56:00.698Z,101728.84
2018-01-27T21:58:29.014Z,101732.91
2018-01-27T22:00:57.353Z,101738.53
2018-01-27T22:03:33.034Z,101726.73
2018-01-27T22:06:01.373Z,101729.42
2018-01-27T22:08:29.681Z,101735.14
2018-01-27T22:10:58.017Z,101737.34
2018-01-27T22:13:26.333Z,101734.66
2018-01-27T22:15:54.670Z,101734.66
2018-01-27T22:18:22.997Z,101742.67
2018-01-27T22:20:51.332Z,101731.27
2018-01-27T22:23:19.649Z,101751.56
2018-01-27T22:25:47.985Z,101735.02
2018-01-27T22:28:16.297Z,101740.34
2018-01-27T22:30:44.633Z,101744.03
2018-01-27T22:33:12.949Z,101739.67
2018-01-27T22:35:41.291Z,101734.43
2018-01-27T22:38:09.606Z,101745.16
2018-01-27T22:40:37.944Z,101762.82
2018-01-27T22:43:06.273Z,101759.37
2018-01-27T22:45:34.605Z,101761.20
2018-01-27T22:48:03.130Z,101759.11
2018-01-27T22:50:31.465Z,101761.48
2018-01-27T22:52:59.781Z,101749.14
2018-01-27T22:55:28.113Z,101753.60
2018-01-27T22:57:56.436Z,101753.20
2018-01-27T23:00:24.760Z,101764.69
2018-01-27T23:02:53.082Z,101775.58
2018-01-27T23:05:21.422Z,101767.70
2018-01-27T23:07:49.738Z,101744.34
2018-01-27T23:10:18.078Z,101749.24
2018-01-27T23:12:46.393Z,101741.73
2018-01-27T23:15:14.707Z,101729.53
2018-01-27T23:17:43.045Z,101719.69
2018-01-27T23:20:11.361Z,101715.41
2018-01-27T23:22:39.697Z,101710.97
2018-01-27T23:25:08.049Z,101715.00
2018-01-27T23:27:36.373Z,101713.20
2018-01-27T23:30:04.694Z,101708.88
2018-01-27T23:32:33.029Z,101697.92
2018-01-27T23:35:01.338Z,101719.02
2018-01-27T23:37:29.682Z,101714.69
2018-01-27T23:39:57.997Z,101701.88
2018-01-27T23:42:26.337Z,101712.36
2018-01-27T23:44:54.654Z,101719.45
2018-01-27T23:47:22.993Z,101718.67
2018-01-27T23:49:51.318Z,101716.92
2018-01-27T23:52:19.662Z,101716.07
2018-01-27T23:54:47.982Z,101709.48
2018-01-27T23:57:16.321Z,101707.73
2018-01-27T23:59:44.633Z,101704.37
